Lugano, Switzerland

3:00 PM CEST on June 02, 2015 (GMT +0200)
Parco Ciani | | Change Station
CLOSE
Current Station
Personal Weather Station
Location: Lugano, TICINO
Elevation: 935 ft
Nearby Weather Stations

Elev 935 ft 46.01 °N, 8.96 °E | Updated 5 seconds ago

Partly Cloudy
Partly Cloudy
77.7 °F
Feels Like 79 °F
N
5.0
Wind Variable Wind from SSE
Gusts 9.0 mph

Today
High -- | Low -- °F
--% Chance of Precip.
Yesterday
High -- | Low -- °F
Precip. -- in
5:36 AM 9:07 PM
Full, 100% visible
Pressure 30.09 in
Visibility 6.2 miles
Clouds Few 3000 ft
Few 4000 ft
Heat Index 79 °F
Dew Point 60 °F
Humidity 55%
Rainfall 0.05 in
Snow Depth Not available.
UV 4.0 out of 12
Pollen Not available.
Air Quality Not available.
Flu Activity Not available.
METAR LSZA 021250Z 18005KT 9999 FEW030 FEW040TCU 27/13 Q1019 NOSIG

More Conditions Fewer Conditions

Pressure 30.09 in
Visibility 6.2 miles
Clouds Few 3000 ft
Few 4000 ft
Heat Index 79 °F
Dew Point 60 °F
Humidity 55%
Rainfall 0.05 in
Snow Depth Not available.
UV 4.0 out of 12
Pollen Not available.
Air Quality Not available.
Flu Activity Not available.
METAR LSZA 021250Z 18005KT 9999 FEW030 FEW040TCU 27/13 Q1019 NOSIG

More Conditions Fewer Conditions

10-Day Weather Forecast

Almanac

Astronomy

Jun. 02, 2015 Rise Set
Actual Time
Civil Twilight
Nautical Twilight
Astronomical Twilight
Moon
Length of Visible Light
Length of Day
Tomorrow will be .
, % of the Moon is Illuminated

Today's Extremes

Country Highs Country Lows

Community

WunderPhotos

Upload Photos

1,825,897 photos uploaded!

WunderBlogs® & News

Nearby

Air Quality

  Air Quality AQ Index Pollutant
Not available.

Snow Depth

Station Depth Elevation

Earthquake Activity

City Distance Mag. Time & Date
Minimum magnitude displayed is 2.5.

Coastal Water Temperatures

Place Temperature

Stations

Nearby Weather Stations

Station Location Temp. Windchill Dew Point Humidity Wind Precip. Elev Updated Type